Kaseyville, Missouri
Current Conditions -  °F | °C
As of 4:11 AM on Saturday 25 Oct 2014 (Local Time) from KIRK Reporting Station
Moderate Fog Moderate Fog  
Wind Chill: 55°   Ceiling: 400
Heat Index: 55°   Visibility: 0.25mi
Dew Point: 55°   Wind: 6mph
Humidity: 100%   Direction: 300°WNW
Pressure: 30.01"   Gusts: NA
Location:  39.7424°N, 92.6454°W
Report Text: KIRK 250911Z AUTO 30005KT 1/4SM FG VV004 13/13 A3001 RMK AO2 T01280128
Loading
Personal Weather Stations






























Interactive Weather Map
Tropical Storm Tracking
New forecast layout! Learn more

10-Day Weather Forecast

Advertisements
Track Severe Weather on mobile